Time;durP1;ratioP1;P1;durP2;ratioP2;P2;SDS_P1;SDS_P2;PMS_P1;PMS_P2;Temp;Humidity;BMP_temperature;BMP_pressure;BME280_temperature;BME280_humidity;BME280_pressure;Samples;Min_cycle;Max_cycle;Signal;HPM_P1;HPM_P2
2020/12/18 00:00:35;;;;;;;1.35;0.80;;;;;;;24.36;36.09;102084.38;4996737;28;104544;-50
2020/12/18 00:03:01;;;;;;;1.75;0.95;;;;;;;24.36;36.19;102084.38;4993752;28;97543;-50
2020/12/18 00:05:27;;;;;;;1.77;0.90;;;;;;;24.36;35.94;102072.84;4996335;28;121334;-50
2020/12/18 00:07:52;;;;;;;2.38;0.80;;;;;;;24.36;36.24;102072.84;4996159;28;102234;-50
2020/12/18 00:10:18;;;;;;;1.45;0.90;;;;;;;24.37;36.19;102086.16;4994967;28;96912;-50
2020/12/18 00:12:43;;;;;;;1.20;0.60;;;;;;;24.37;36.15;102080.81;4995583;28;127738;-51
2020/12/18 00:15:09;;;;;;;1.23;0.80;;;;;;;24.37;36.16;102083.47;4994299;28;97324;-50
2020/12/18 00:17:34;;;;;;;1.20;0.85;;;;;;;24.37;35.87;102083.47;4996566;28;98476;-50
2020/12/18 00:20:04;;;;;;;1.63;1.00;;;;;;;24.36;36.07;102075.50;4995525;28;96895;-50
2020/12/18 00:22:29;;;;;;;1.20;0.80;;;;;;;24.37;35.95;102078.16;4995401;28;125057;-50
2020/12/18 00:24:55;;;;;;;1.77;0.90;;;;;;;24.36;36.17;102078.19;4997138;28;97225;-51
2020/12/18 00:27:20;;;;;;;1.08;0.77;;;;;;;24.34;36.05;102072.88;4992995;28;96891;-50
2020/12/18 00:29:46;;;;;;;1.30;0.75;;;;;;;24.36;35.92;102070.19;4996696;28;111445;-51
2020/12/18 00:32:12;;;;;;;1.48;1.08;;;;;;;24.36;36.28;102070.19;4995688;28;98832;-50
2020/12/18 00:34:37;;;;;;;1.58;0.80;;;;;;;24.34;36.23;102070.22;4997058;28;97167;-51
2020/12/18 00:37:02;;;;;;;1.70;1.00;;;;;;;24.35;36.18;102066.66;4993333;28;112096;-51
2020/12/18 00:39:28;;;;;;;1.10;0.77;;;;;;;24.34;35.96;102059.56;4995896;28;96674;-50
2020/12/18 00:41:54;;;;;;;1.20;0.65;;;;;;;24.34;35.92;102062.22;4994015;28;126765;-50
2020/12/18 00:44:20;;;;;;;1.30;0.90;;;;;;;24.34;35.85;102059.56;4995996;28;98437;-51
2020/12/18 00:46:46;;;;;;;1.40;0.70;;;;;;;24.33;36.03;102053.34;4991226;28;96806;-50
2020/12/18 00:49:12;;;;;;;1.23;0.70;;;;;;;24.35;36.16;102057.75;4997144;28;96702;-50
2020/12/18 00:51:37;;;;;;;1.33;0.85;;;;;;;24.35;35.72;102057.75;4993806;28;99440;-50
2020/12/18 00:54:03;;;;;;;1.10;0.80;;;;;;;24.35;35.99;102057.75;4996797;28;97216;-51
2020/12/18 00:56:29;;;;;;;0.80;0.70;;;;;;;24.35;36.06;102063.09;4995127;28;97125;-50
2020/12/18 00:58:54;;;;;;;0.93;0.60;;;;;;;24.35;36.14;102065.75;4993831;28;96932;-50
2020/12/18 01:01:21;;;;;;;1.10;0.65;;;;;;;24.35;35.89;102060.41;4994457;28;97603;-50
2020/12/18 01:03:47;;;;;;;1.30;0.80;;;;;;;24.34;35.73;102054.22;5005519;28;97105;-50
2020/12/18 01:06:13;;;;;;;1.15;0.82;;;;;;;24.35;36.02;102061.31;4996166;28;96858;-50
2020/12/18 01:08:50;;;;;;;1.25;0.80;;;;;;;24.35;36.07;102055.97;4991666;28;97355;-50
2020/12/18 01:11:21;;;;;;;1.48;0.70;;;;;;;24.34;36.00;102056.88;4994486;28;97710;-50
2020/12/18 01:13:46;;;;;;;1.13;0.73;;;;;;;24.35;35.84;102065.75;4991144;28;99302;-51
2020/12/18 01:16:12;;;;;;;2.00;1.50;;;;;;;24.33;36.06;102058.69;4990669;28;98952;-51
2020/12/18 01:18:40;;;;;;;1.55;0.90;;;;;;;24.33;36.00;102053.34;4989614;28;97008;-50
2020/12/18 01:21:12;;;;;;;1.08;0.77;;;;;;;24.34;35.83;102054.22;4995851;28;98733;-50
2020/12/18 01:23:40;;;;;;;0.95;0.60;;;;;;;24.35;36.04;102055.97;4999271;28;97385;-50
2020/12/18 01:26:10;;;;;;;0.73;0.50;;;;;;;24.34;35.96;102056.88;4996586;28;96754;-50
2020/12/18 01:28:36;;;;;;;1.67;1.35;;;;;;;24.33;36.00;102061.34;4988437;28;97156;-51
2020/12/18 01:31:02;;;;;;;1.85;1.13;;;;;;;24.35;35.93;102061.31;4989961;28;97561;-50
2020/12/18 01:33:31;;;;;;;1.27;0.77;;;;;;;24.35;36.08;102068.41;4991202;28;100227;-50
2020/12/18 01:35:57;;;;;;;1.42;1.33;;;;;;;24.35;35.67;102063.97;4992024;28;97124;-50
2020/12/18 01:38:22;;;;;;;1.13;0.70;;;;;;;24.35;35.74;102055.97;4991294;28;96848;-50
2020/12/18 01:40:50;;;;;;;1.02;0.93;;;;;;;24.35;35.64;102055.97;4991791;28;98806;-50
2020/12/18 01:43:16;;;;;;;1.63;0.77;;;;;;;24.36;35.61;102059.50;4993711;28;98271;-50
2020/12/18 01:45:44;;;;;;;1.73;0.80;;;;;;;24.37;35.75;102061.25;4989970;28;98832;-50
2020/12/18 01:48:12;;;;;;;1.00;0.80;;;;;;;24.35;35.73;102058.66;4978464;28;96995;-50
2020/12/18 01:50:47;;;;;;;1.45;1.30;;;;;;;24.37;35.87;102070.16;4974611;28;98904;-51
2020/12/18 01:53:13;;;;;;;1.00;0.80;;;;;;;24.36;35.76;102060.38;4994340;28;97074;-50
2020/12/18 01:55:53;;;;;;;1.52;1.20;;;;;;;24.38;35.77;102063.00;4978002;28;97501;-50
2020/12/18 01:58:21;;;;;;;1.15;0.60;;;;;;;24.37;35.82;102064.81;4994538;28;98057;-50
2020/12/18 02:00:47;;;;;;;1.45;1.20;;;;;;;24.38;36.12;102065.69;4976084;28;97633;-50
2020/12/18 02:03:21;;;;;;;1.05;0.60;;;;;;;24.38;35.52;102060.34;4970216;28;97509;-50
2020/12/18 02:06:05;;;;;;;1.33;1.00;;;;;;;24.38;35.64;102065.69;4990826;28;97149;-50
2020/12/18 02:08:51;;;;;;;1.00;0.75;;;;;;;24.38;35.50;102063.00;4991540;28;96930;-50
2020/12/18 02:11:20;;;;;;;0.90;0.70;;;;;;;24.37;35.62;102056.81;4989326;28;97483;-50
2020/12/18 02:13:52;;;;;;;0.80;0.80;;;;;;;24.36;35.62;102052.38;4958370;28;98347;-50
2020/12/18 02:16:19;;;;;;;1.58;0.60;;;;;;;24.37;35.53;102059.47;4989999;28;97467;-50
2020/12/18 02:18:46;;;;;;;1.75;0.80;;;;;;;24.37;35.75;102058.59;4986280;28;97800;-50
2020/12/18 02:21:11;;;;;;;1.02;0.60;;;;;;;24.37;35.75;102062.16;4973615;28;98657;-50
2020/12/18 02:23:39;;;;;;;1.70;0.70;;;;;;;24.38;35.94;102055.00;4991562;28;99263;-50
2020/12/18 02:26:09;;;;;;;1.40;0.70;;;;;;;24.36;35.70;102046.19;4983274;28;96900;-50
2020/12/18 02:28:39;;;;;;;1.27;0.73;;;;;;;24.36;35.72;102051.50;4991228;28;97149;-50
2020/12/18 02:31:06;;;;;;;1.67;1.58;;;;;;;24.35;35.59;102050.66;4991404;28;99878;-50
2020/12/18 02:33:43;;;;;;;0.88;0.63;;;;;;;24.36;35.64;102051.50;4994686;28;98469;-50
2020/12/18 02:36:14;;;;;;;1.13;0.95;;;;;;;24.36;35.84;102052.38;4980245;28;97805;-50
2020/12/18 02:38:45;;;;;;;0.90;0.80;;;;;;;24.35;35.72;102036.41;4955499;28;97603;-50
2020/12/18 02:41:10;;;;;;;1.25;1.15;;;;;;;24.35;35.78;102036.41;4981914;28;99576;-50
2020/12/18 02:43:56;;;;;;;1.40;0.82;;;;;;;24.34;35.47;102038.22;4969962;28;97093;-50
2020/12/18 02:46:22;;;;;;;1.13;0.55;;;;;;;24.34;35.80;102038.22;4975889;28;96874;-51
2020/12/18 02:48:50;;;;;;;1.35;0.82;;;;;;;24.34;35.51;102032.88;4992357;28;97256;-51
2020/12/18 02:51:28;;;;;;;1.38;0.90;;;;;;;24.35;35.45;102036.41;4985890;28;97733;-50
2020/12/18 02:54:23;;;;;;;1.33;0.77;;;;;;;24.35;35.59;102031.09;4957029;28;97033;-51
2020/12/18 02:56:58;;;;;;;0.90;0.70;;;;;;;24.35;35.48;102031.09;4992000;28;97137;-50
2020/12/18 02:59:59;;;;;;;0.82;0.60;;;;;;;24.34;35.71;102027.56;4974771;28;97175;-50
2020/12/18 03:02:25;;;;;;;1.25;0.93;;;;;;;24.33;35.67;102032.03;4993835;28;97726;-50
2020/12/18 03:04:53;;;;;;;1.00;0.70;;;;;;;24.33;35.78;102020.47;4993336;28;97432;-50
2020/12/18 03:07:24;;;;;;;1.35;0.80;;;;;;;24.32;35.56;102022.25;4987676;28;98024;-50
2020/12/18 03:09:50;;;;;;;1.00;0.60;;;;;;;24.33;35.52;102024.03;4994112;28;97237;-50
2020/12/18 03:12:17;;;;;;;1.58;0.75;;;;;;;24.33;35.73;102023.13;4990789;28;99617;-50
2020/12/18 03:14:44;;;;;;;1.42;0.82;;;;;;;24.32;35.50;102027.59;4991930;28;99761;-50
2020/12/18 03:17:44;;;;;;;0.80;0.60;;;;;;;24.32;35.72;102029.38;4991995;28;97307;-50
2020/12/18 03:20:11;;;;;;;1.58;0.63;;;;;;;24.33;35.70;102031.13;4993794;28;97289;-50
2020/12/18 03:22:45;;;;;;;0.70;0.57;;;;;;;24.32;35.27;102030.25;4991580;28;97792;-50
2020/12/18 03:25:23;;;;;;;1.08;0.70;;;;;;;24.33;35.67;102031.13;4975370;28;98543;-51
2020/12/18 03:28:06;;;;;;;1.05;0.77;;;;;;;24.33;35.48;102033.78;4989219;28;97566;-50
2020/12/18 03:30:34;;;;;;;0.88;0.60;;;;;;;24.32;35.49;102030.25;4992524;28;97058;-50
2020/12/18 03:33:02;;;;;;;0.90;0.63;;;;;;;24.32;35.27;102029.38;4981421;28;97804;-50
2020/12/18 03:35:29;;;;;;;1.60;1.20;;;;;;;24.33;35.57;102033.78;4989729;28;98469;-50
2020/12/18 03:37:54;;;;;;;1.25;0.60;;;;;;;24.33;35.42;102033.78;4988164;28;98022;-50
2020/12/18 03:40:22;;;;;;;0.98;0.60;;;;;;;24.33;35.55;102034.69;4992100;28;97160;-50
2020/12/18 03:42:53;;;;;;;0.98;0.60;;;;;;;24.33;35.55;102031.13;4987885;28;97707;-50
2020/12/18 03:45:23;;;;;;;1.38;0.90;;;;;;;24.33;35.45;102034.69;4991628;28;97844;-50
2020/12/18 03:47:55;;;;;;;0.93;0.70;;;;;;;24.33;35.36;102032.03;4992349;28;97627;-50
2020/12/18 03:50:30;;;;;;;1.33;0.80;;;;;;;24.35;35.38;102028.41;4993323;28;96938;-50
2020/12/18 03:52:58;;;;;;;1.63;0.85;;;;;;;24.35;35.48;102033.75;4991924;28;97661;-50
2020/12/18 03:55:24;;;;;;;0.70;0.60;;;;;;;24.35;35.70;102028.41;4995024;28;98387;-50
2020/12/18 03:58:09;;;;;;;0.82;0.60;;;;;;;24.35;35.47;102015.09;4994835;28;96861;-50
2020/12/18 04:01:07;;;;;;;1.00;0.52;;;;;;;24.35;35.22;102016.00;4937554;28;96915;-50
2020/12/18 04:03:33;;;;;;;1.02;0.60;;;;;;;24.36;35.61;102014.19;4993156;28;98625;-50
2020/12/18 04:05:59;;;;;;;1.13;1.02;;;;;;;24.35;35.22;102016.00;4995739;28;97385;-50
2020/12/18 04:08:24;;;;;;;1.17;0.65;;;;;;;24.35;35.42;102007.09;4995605;28;96824;-50
2020/12/18 04:11:13;;;;;;;1.23;0.80;;;;;;;24.36;35.20;102011.53;4992467;28;96965;-50
2020/12/18 04:13:57;;;;;;;1.35;0.70;;;;;;;24.36;35.66;102011.53;4992768;28;100415;-50
2020/12/18 04:16:28;;;;;;;0.93;0.55;;;;;;;24.35;35.21;102010.66;4993044;28;97565;-50
2020/12/18 04:18:54;;;;;;;1.35;0.70;;;;;;;24.35;35.30;102009.75;4993762;28;96813;-50
2020/12/18 04:21:24;;;;;;;1.05;0.60;;;;;;;24.35;35.44;102010.66;4993174;28;97048;-50
2020/12/18 04:23:59;;;;;;;0.90;0.63;;;;;;;24.36;35.29;102012.38;4994332;28;97679;-50
2020/12/18 04:26:30;;;;;;;0.80;0.60;;;;;;;24.36;35.38;102008.84;4991140;28;98418;-51
2020/12/18 04:28:56;;;;;;;0.95;0.75;;;;;;;24.38;35.30;102013.22;4995493;28;96941;-50
2020/12/18 04:31:22;;;;;;;0.70;0.57;;;;;;;24.37;35.42;102008.81;4995715;28;97052;-50
2020/12/18 04:33:48;;;;;;;0.80;0.50;;;;;;;24.38;35.34;102007.88;4989117;28;97642;-50
2020/12/18 04:36:18;;;;;;;1.42;0.60;;;;;;;24.38;35.21;102004.34;4991468;28;97362;-50
2020/12/18 04:38:44;;;;;;;1.00;0.50;;;;;;;24.39;35.26;102011.44;4995183;28;97230;-50
2020/12/18 04:41:25;;;;;;;0.73;0.60;;;;;;;24.39;35.31;102016.78;4979377;28;96983;-50
2020/12/18 04:43:57;;;;;;;1.20;0.60;;;;;;;24.38;35.20;102005.22;4978380;28;97611;-50
2020/12/18 04:46:31;;;;;;;0.80;0.60;;;;;;;24.38;35.14;102010.53;4993364;28;97431;-51
2020/12/18 04:48:57;;;;;;;0.70;0.57;;;;;;;24.38;35.46;102001.69;4975547;28;97226;-50
2020/12/18 04:51:27;;;;;;;0.90;0.63;;;;;;;24.38;35.47;102002.53;4991797;28;96964;-50
2020/12/18 04:54:03;;;;;;;0.95;0.60;;;;;;;24.37;35.41;101999.91;4990722;28;98802;-50
2020/12/18 04:56:37;;;;;;;1.02;0.60;;;;;;;24.37;35.10;101995.47;4977071;28;99835;-50
2020/12/18 04:59:09;;;;;;;1.33;0.70;;;;;;;24.36;35.10;101992.84;4978456;28;97039;-50
2020/12/18 05:01:55;;;;;;;0.95;0.70;;;;;;;24.35;35.03;101988.44;4978616;28;96884;-50
2020/12/18 05:04:21;;;;;;;1.17;0.70;;;;;;;24.36;35.03;101976.84;4995008;28;97598;-50
2020/12/18 05:07:02;;;;;;;0.93;0.60;;;;;;;24.35;35.16;101986.66;4992651;28;98384;-50
2020/12/18 05:09:49;;;;;;;0.70;0.60;;;;;;;24.34;35.14;101990.22;4994155;28;96659;-50
2020/12/18 05:12:18;;;;;;;0.70;0.60;;;;;;;24.34;35.27;101982.22;4977021;28;96982;-50
2020/12/18 05:14:47;;;;;;;1.15;0.65;;;;;;;24.35;34.98;101986.66;4991097;28;100094;-50
2020/12/18 05:17:25;;;;;;;0.93;0.57;;;;;;;24.33;35.09;101978.69;4987574;28;97333;-50
2020/12/18 05:19:51;;;;;;;0.90;0.70;;;;;;;24.33;35.42;101973.38;4994210;28;97106;-50
2020/12/18 05:22:42;;;;;;;1.60;0.60;;;;;;;24.35;34.98;101984.00;5004002;28;97393;-50
2020/12/18 05:25:21;;;;;;;1.45;0.60;;;;;;;24.35;34.91;101989.31;4993891;28;97583;-50
2020/12/18 05:27:49;;;;;;;1.13;0.50;;;;;;;24.35;35.35;101994.66;4993014;28;97667;-50
2020/12/18 05:30:20;;;;;;;1.15;0.75;;;;;;;24.34;35.02;101990.22;5006660;28;97161;-50
2020/12/18 05:33:07;;;;;;;0.73;0.50;;;;;;;24.35;35.00;101989.31;4950859;28;97068;-50
2020/12/18 05:35:48;;;;;;;1.00;0.77;;;;;;;24.35;35.32;101993.75;5003900;28;100292;-50
2020/12/18 05:38:22;;;;;;;0.90;0.57;;;;;;;24.34;34.94;101982.22;4961685;28;98601;-50
2020/12/18 05:41:00;;;;;;;1.08;0.63;;;;;;;24.35;34.91;101986.66;4992975;28;96852;-50
2020/12/18 05:43:39;;;;;;;1.80;0.98;;;;;;;24.34;35.29;101995.56;4974652;28;97317;-50
2020/12/18 05:46:26;;;;;;;0.90;0.47;;;;;;;24.36;34.93;101988.38;4993508;28;97167;-50
2020/12/18 05:49:03;;;;;;;1.20;0.70;;;;;;;24.35;34.96;101985.75;4991224;28;98577;-50
2020/12/18 05:51:33;;;;;;;1.00;0.60;;;;;;;24.34;35.15;101982.22;4989653;28;96932;-50
2020/12/18 05:54:16;;;;;;;2.78;2.58;;;;;;;24.32;35.35;101982.25;5013851;22;96802;-51
2020/12/18 05:56:56;;;;;;;0.80;0.50;;;;;;;24.35;34.87;101978.66;4951277;28;100218;-52
2020/12/18 05:59:22;;;;;;;0.80;0.50;;;;;;;24.33;34.91;101984.03;4937133;28;98496;-52
2020/12/18 06:01:54;;;;;;;0.60;0.60;;;;;;;24.35;35.07;101980.44;4936764;28;97004;-52
2020/12/18 06:04:38;;;;;;;1.00;0.60;;;;;;;24.33;34.91;101981.38;4934624;28;96778;-52
2020/12/18 06:07:14;;;;;;;0.70;0.60;;;;;;;24.34;35.27;101974.22;4934099;28;99606;-52
2020/12/18 06:10:15;;;;;;;0.90;0.60;;;;;;;24.35;35.05;101977.75;4895044;28;97141;-52
2020/12/18 06:13:02;;;;;;;0.82;0.50;;;;;;;24.32;35.21;101976.94;4893795;28;97085;-52
2020/12/18 06:15:42;;;;;;;0.90;0.43;;;;;;;24.33;34.97;101967.13;4898361;28;97029;-52
2020/12/18 06:18:08;;;;;;;0.90;0.50;;;;;;;24.32;35.10;101970.72;4875432;28;98636;-52
2020/12/18 06:20:35;;;;;;;1.38;0.90;;;;;;;24.32;35.24;101965.41;4918640;28;97488;-52
2020/12/18 06:23:02;;;;;;;0.70;0.60;;;;;;;24.32;34.82;101968.94;4918173;28;97327;-52
2020/12/18 06:25:42;;;;;;;1.13;0.70;;;;;;;24.32;34.93;101968.06;4919080;28;96878;-52
2020/12/18 06:28:46;;;;;;;0.90;0.60;;;;;;;24.32;35.14;101968.94;4886773;28;97231;-52
2020/12/18 06:31:24;;;;;;;0.73;0.68;;;;;;;24.31;34.92;101960.97;4891475;28;98253;-51
2020/12/18 06:34:10;;;;;;;2.25;0.77;;;;;;;24.32;35.05;101960.06;4912980;28;96848;-52
2020/12/18 06:36:58;;;;;;;1.02;0.60;;;;;;;24.32;35.16;101957.41;4935209;28;96826;-52
2020/12/18 06:39:43;;;;;;;0.98;0.60;;;;;;;24.31;35.10;101959.19;4934823;28;96981;-52
2020/12/18 06:42:28;;;;;;;0.88;0.47;;;;;;;24.30;34.87;101951.25;4934148;28;96968;-52
2020/12/18 06:45:23;;;;;;;0.88;0.63;;;;;;;24.30;34.99;101945.91;4930279;28;96993;-52
2020/12/18 06:47:57;;;;;;;0.60;0.50;;;;;;;24.31;35.09;101942.31;4932882;28;96755;-52
2020/12/18 06:50:43;;;;;;;1.33;0.73;;;;;;;24.30;35.09;101952.09;4934818;28;99663;-52
2020/12/18 06:53:14;;;;;;;1.38;0.70;;;;;;;24.31;34.89;101939.63;4932236;28;96968;-52
2020/12/18 06:55:54;;;;;;;1.23;1.00;;;;;;;24.31;34.90;101950.31;4930462;28;97303;-52
2020/12/18 06:58:34;;;;;;;1.05;0.68;;;;;;;24.30;35.02;101954.78;4935914;28;97541;-52
2020/12/18 07:01:00;;;;;;;1.13;0.60;;;;;;;24.30;34.73;101954.78;4935303;28;97589;-52
2020/12/18 07:03:37;;;;;;;0.88;0.50;;;;;;;24.29;35.02;101961.00;4934882;28;98283;-52
2020/12/18 07:06:04;;;;;;;1.38;0.88;;;;;;;24.31;34.74;101955.63;4934554;28;98585;-54
2020/12/18 07:08:34;;;;;;;0.80;0.40;;;;;;;24.30;35.10;101960.09;4932773;28;96843;-54
2020/12/18 07:11:01;;;;;;;0.70;0.60;;;;;;;24.31;34.79;101959.19;4932967;28;107604;-53
2020/12/18 07:13:26;;;;;;;0.90;0.70;;;;;;;24.31;35.14;101945.88;4935165;28;97215;-54
2020/12/18 07:15:52;;;;;;;1.48;0.88;;;;;;;24.32;35.16;101946.75;4934055;28;110650;-54
2020/12/18 07:18:31;;;;;;;1.17;0.68;;;;;;;24.31;34.73;101932.53;4939124;28;96694;-54
2020/12/18 07:20:57;;;;;;;1.08;0.93;;;;;;;24.32;34.91;101936.94;4934824;28;97646;-54
2020/12/18 07:23:23;;;;;;;0.70;0.60;;;;;;;24.33;34.89;101936.03;4937929;28;97491;-54
2020/12/18 07:25:49;;;;;;;1.30;0.95;;;;;;;24.33;34.66;101943.13;4936793;28;97289;-54
2020/12/18 07:28:15;;;;;;;1.10;0.70;;;;;;;24.34;34.78;101944.91;4936761;28;97256;-54
2020/12/18 07:30:42;;;;;;;1.73;1.08;;;;;;;24.34;35.05;101939.56;4936322;28;97678;-54
2020/12/18 07:33:08;;;;;;;0.90;0.63;;;;;;;24.34;34.89;101931.56;4937376;28;98559;-54
2020/12/18 07:35:38;;;;;;;0.80;0.60;;;;;;;24.33;34.81;101936.03;4937708;28;102415;-53
2020/12/18 07:38:11;;;;;;;1.10;0.70;;;;;;;24.33;35.02;101938.69;4937008;28;98344;-54
2020/12/18 07:40:37;;;;;;;0.73;0.52;;;;;;;24.35;34.95;101928.00;4936858;28;97560;-54
2020/12/18 07:43:06;;;;;;;1.33;0.70;;;;;;;24.35;34.79;101929.75;4920994;28;97188;-54
2020/12/18 07:45:32;;;;;;;1.13;0.60;;;;;;;24.35;34.68;101933.34;4935874;28;96797;-54
2020/12/18 07:47:57;;;;;;;0.70;0.55;;;;;;;24.35;34.88;101938.66;4936777;28;97056;-54
2020/12/18 07:50:23;;;;;;;0.80;0.60;;;;;;;24.35;34.82;101940.44;4938609;28;105482;-53
2020/12/18 07:52:48;;;;;;;1.30;0.82;;;;;;;24.34;34.60;101936.91;4936906;28;123614;-54
2020/12/18 07:55:16;;;;;;;0.73;0.47;;;;;;;24.35;34.78;101935.09;4935893;28;114399;-53
2020/12/18 07:57:42;;;;;;;1.10;0.65;;;;;;;24.33;34.63;101941.38;4937079;28;97196;-54
2020/12/18 08:00:08;;;;;;;1.10;0.63;;;;;;;24.33;34.96;101953.81;4936300;28;127953;-53
2020/12/18 08:02:39;;;;;;;0.65;0.50;;;;;;;24.32;34.84;101946.75;4934879;28;97127;-53
2020/12/18 08:05:04;;;;;;;1.00;0.50;;;;;;;24.31;34.54;101953.88;4936648;28;97284;-54
2020/12/18 08:07:30;;;;;;;0.80;0.63;;;;;;;24.31;34.82;101953.88;4937696;28;97144;-54
2020/12/18 08:10:00;;;;;;;0.93;0.60;;;;;;;24.31;34.82;101952.97;4937090;28;96826;-54
2020/12/18 08:12:29;;;;;;;0.85;0.50;;;;;;;24.30;34.52;101960.09;4922292;28;98566;-54
2020/12/18 08:15:13;;;;;;;0.90;0.40;;;;;;;24.28;34.59;101964.59;4938292;28;97520;-53
2020/12/18 08:17:39;;;;;;;0.82;0.60;;;;;;;24.30;34.93;101969.91;4936325;28;97467;-54
2020/12/18 08:20:11;;;;;;;1.10;0.40;;;;;;;24.29;34.67;101968.13;4936677;28;97519;-53
2020/12/18 08:22:43;;;;;;;1.08;0.60;;;;;;;24.29;34.60;101976.13;4936699;28;97297;-54
2020/12/18 08:25:08;;;;;;;0.70;0.40;;;;;;;24.29;34.75;101976.13;4936677;28;96734;-53
2020/12/18 08:27:38;;;;;;;0.95;0.60;;;;;;;24.30;34.56;101985.91;4937117;28;96807;-54
2020/12/18 08:30:04;;;;;;;1.00;0.60;;;;;;;24.30;34.74;101997.44;4920641;28;97485;-54
2020/12/18 08:32:31;;;;;;;0.70;0.50;;;;;;;24.31;34.64;101999.19;4942155;28;97866;-53
2020/12/18 08:35:00;;;;;;;1.48;1.35;;;;;;;24.33;34.87;101994.69;4932339;28;111982;-54
2020/12/18 08:37:25;;;;;;;0.90;0.40;;;;;;;24.36;34.62;101993.72;4920670;28;96987;-54
2020/12/18 08:39:51;;;;;;;4.82;0.60;;;;;;;24.39;34.63;101993.66;4936221;28;127011;-54
2020/12/18 08:42:16;;;;;;;2.42;0.60;;;;;;;24.41;34.51;101997.13;4935572;28;97231;-54
2020/12/18 08:44:43;;;;;;;0.82;0.60;;;;;;;24.44;34.49;102001.53;4935699;28;113738;-54
2020/12/18 08:47:24;;;;;;;1.67;0.50;;;;;;;24.45;34.54;102004.13;4941063;28;96745;-54
2020/12/18 08:49:51;;;;;;;2.00;0.57;;;;;;;24.48;34.35;101997.84;4939986;28;98954;-54
2020/12/18 08:52:26;;;;;;;3.10;0.60;;;;;;;24.50;34.51;102004.88;4937645;28;123824;-54
2020/12/18 08:55:01;;;;;;;3.08;0.70;;;;;;;24.52;34.62;102008.38;4939875;28;96729;-52
2020/12/18 08:57:31;;;;;;;5.70;0.70;;;;;;;24.55;34.54;102012.81;4937817;28;96963;-55
2020/12/18 09:00:00;;;;;;;2.13;0.95;;;;;;;24.57;34.58;102007.44;4922740;28;97619;-57
2020/12/18 09:02:29;;;;;;;3.20;0.80;;;;;;;24.59;34.50;102013.59;4937088;28;97386;-56
2020/12/18 09:05:08;;;;;;;6.70;0.80;;;;;;;24.54;35.03;102015.50;4919465;28;96974;-53
2020/12/18 09:07:46;;;;;;;4.18;0.93;;;;;;;24.58;34.84;102012.72;4937232;28;97096;-51
2020/12/18 09:10:11;;;;;;;4.05;1.00;;;;;;;24.65;34.62;102008.06;4912424;28;100798;-57
2020/12/18 09:12:43;;;;;;;3.53;0.90;;;;;;;24.68;34.70;102008.00;4935080;28;128013;-58
2020/12/18 09:15:38;;;;;;;5.22;1.00;;;;;;;24.68;34.70;102011.53;4937177;28;96678;-55
2020/12/18 09:18:08;;;;;;;3.47;1.20;;;;;;;24.73;34.49;102014.09;4925998;28;97596;-56
2020/12/18 09:20:34;;;;;;;4.65;1.15;;;;;;;24.74;34.42;102007.81;4937605;28;122037;-55
2020/12/18 09:23:07;;;;;;;1.58;0.70;;;;;;;24.76;34.42;102011.34;4936302;28;97279;-55
2020/12/18 09:25:37;;;;;;;3.10;0.80;;;;;;;24.78;34.13;102011.31;4936475;28;96851;-55
2020/12/18 09:28:03;;;;;;;3.83;0.93;;;;;;;24.80;34.26;102014.78;4935746;28;96832;-55
2020/12/18 09:30:30;;;;;;;3.33;1.00;;;;;;;24.80;34.06;102006.78;4936064;28;98685;-55
2020/12/18 09:33:08;;;;;;;3.30;1.00;;;;;;;24.80;34.33;102004.13;4936825;28;97778;-55
2020/12/18 09:35:33;;;;;;;3.03;0.80;;;;;;;24.83;34.01;102020.91;4937798;28;96732;-55
2020/12/18 09:37:59;;;;;;;4.25;0.80;;;;;;;24.84;34.18;102019.13;4937831;28;96688;-55
2020/12/18 09:40:24;;;;;;;3.78;1.00;;;;;;;24.85;34.21;102013.72;4935786;28;126669;-55
2020/12/18 09:42:50;;;;;;;2.47;0.68;;;;;;;24.86;33.95;102011.94;4937133;28;102571;-56
2020/12/18 09:45:15;;;;;;;5.03;0.80;;;;;;;24.87;34.28;102011.03;4919518;28;112076;-56
2020/12/18 09:47:41;;;;;;;2.08;0.90;;;;;;;24.88;33.97;102015.44;4937631;28;98485;-56
2020/12/18 09:50:06;;;;;;;4.57;1.00;;;;;;;24.89;33.94;102017.19;4936305;28;99654;-55
2020/12/18 09:52:32;;;;;;;1.58;0.70;;;;;;;24.91;33.98;102019.81;4936368;28;126658;-56
2020/12/18 09:54:57;;;;;;;1.35;0.70;;;;;;;24.91;34.11;102012.69;4936720;28;111997;-55
2020/12/18 10:52:11;;;;;;;3.97;1.40;;;;;;;22.53;39.92;101977.47;5048012;27;97547;-57
2020/12/18 10:54:37;;;;;;;8.48;1.42;;;;;;;22.91;38.96;101972.28;5048810;27;96768;-58
2020/12/18 10:57:02;;;;;;;3.97;1.17;;;;;;;23.22;38.53;101966.31;5044918;27;123530;-59
2020/12/18 11:01:41;;;;;;;6.00;1.30;;;;;;;23.64;38.02;101966.25;5052130;27;98381;-56
2020/12/18 11:04:07;;;;;;;8.57;1.35;;;;;;;23.78;37.75;101964.13;5016717;27;103903;-57
2020/12/18 11:06:38;;;;;;;59.25;5.88;;;;;;;23.95;37.13;101955.72;5032789;27;98347;-59
2020/12/18 11:09:03;;;;;;;36.10;5.15;;;;;;;24.09;37.27;101944.69;5012630;27;97441;-54
2020/12/18 11:11:29;;;;;;;25.67;3.20;;;;;;;24.22;36.73;101942.56;5000433;28;110313;-57
2020/12/18 11:13:56;;;;;;;21.13;3.78;;;;;;;24.32;36.94;101939.59;5016401;28;96742;-57
2020/12/18 11:16:21;;;;;;;17.27;2.40;;;;;;;24.42;36.55;101924.25;5029363;28;97575;-61
2020/12/18 11:18:48;;;;;;;19.48;2.40;;;;;;;24.51;36.60;101928.44;5001795;28;97024;-59
2020/12/18 11:21:14;;;;;;;16.55;2.47;;;;;;;24.60;36.70;101922.88;5032366;27;97837;-57
2020/12/18 11:23:39;;;;;;;11.35;2.38;;;;;;;24.67;36.36;101920.88;5025056;27;96656;-62
2020/12/18 11:26:04;;;;;;;13.60;2.40;;;;;;;24.75;36.36;101918.00;5013477;27;122376;-62
2020/12/18 11:28:30;;;;;;;9.23;1.83;;;;;;;24.81;36.04;101921.38;5021799;27;97430;-53
2020/12/18 11:30:55;;;;;;;8.95;2.40;;;;;;;24.86;36.00;101924.75;5035177;27;97164;-54
2020/12/18 11:33:21;;;;;;;15.88;2.20;;;;;;;24.92;35.83;101920.13;5035082;27;96780;-53
2020/12/18 11:35:47;;;;;;;13.75;2.20;;;;;;;24.95;35.79;101925.41;5013119;27;109934;-53
2020/12/18 11:38:12;;;;;;;10.60;2.13;;;;;;;24.97;35.59;101924.41;5000701;27;110110;-54
2020/12/18 11:40:37;;;;;;;8.23;1.88;;;;;;;25.00;35.84;101910.97;5025992;27;103002;-53
2020/12/18 11:43:03;;;;;;;6.97;1.45;;;;;;;25.03;35.45;101920.72;5047026;27;101273;-53
2020/12/18 11:45:29;;;;;;;6.57;1.88;;;;;;;25.04;35.36;101920.63;5024611;27;97478;-53
2020/12/18 11:47:54;;;;;;;6.30;1.90;;;;;;;25.07;35.31;101912.53;5037971;27;97300;-54
2020/12/18 11:50:20;;;;;;;8.40;1.70;;;;;;;25.08;35.28;101903.63;5033155;27;110318;-54
2020/12/18 11:52:46;;;;;;;5.45;1.40;;;;;;;25.08;35.47;101889.41;5017333;28;96910;-54
2020/12/18 11:55:12;;;;;;;8.25;3.92;;;;;;;25.09;35.26;101873.31;5046755;22;97860;-54
2020/12/18 11:57:37;;;;;;;14.13;2.08;;;;;;;25.09;35.14;101872.44;5009868;28;97203;-55
2020/12/18 12:00:04;;;;;;;7.03;1.90;;;;;;;25.09;35.25;101861.78;5009606;28;103881;-55
2020/12/18 12:02:38;;;;;;;8.82;1.70;;;;;;;25.08;35.54;101852.03;4958407;28;96791;-55
2020/12/18 12:05:23;;;;;;;4.10;1.30;;;;;;;25.04;35.34;101845.91;4990560;28;97485;-55
2020/12/18 12:07:48;;;;;;;8.25;1.77;;;;;;;25.04;35.35;101843.22;4989813;28;97373;-55
2020/12/18 12:10:15;;;;;;;7.28;1.58;;;;;;;25.03;35.20;101837.97;4978449;28;97207;-55
2020/12/18 12:12:40;;;;;;;4.50;1.50;;;;;;;25.01;35.04;101837.13;4980015;28;96856;-55
2020/12/18 12:15:05;;;;;;;7.78;1.50;;;;;;;24.99;35.38;101834.53;4959639;28;126821;-55
2020/12/18 12:17:31;;;;;;;5.70;1.45;;;;;;;24.98;35.03;101835.44;4955226;28;97203;-55
2020/12/18 12:19:57;;;;;;;5.30;1.40;;;;;;;24.97;35.38;101832.81;4958460;28;97189;-55
2020/12/18 12:22:23;;;;;;;4.05;1.30;;;;;;;24.95;35.27;101834.66;4974491;28;110223;-55
2020/12/18 12:24:49;;;;;;;5.07;1.20;;;;;;;24.94;35.11;101843.56;4976074;28;98552;-48
2020/12/18 12:27:15;;;;;;;4.72;1.55;;;;;;;24.92;35.14;101840.97;4932332;28;97362;-48
2020/12/18 12:29:40;;;;;;;4.78;1.63;;;;;;;24.91;35.42;101835.69;4976645;28;96809;-47
2020/12/18 12:32:06;;;;;;;4.90;1.40;;;;;;;24.89;35.34;101827.72;4975084;28;110119;-48
2020/12/18 12:34:32;;;;;;;4.82;1.27;;;;;;;24.88;35.23;101831.31;4965940;28;97523;-47
2020/12/18 12:36:58;;;;;;;5.80;1.40;;;;;;;24.87;35.33;101824.22;4975022;28;97292;-48